createdAt,value
2019-05-22T00:00:11.971Z,79.99
2019-05-22T00:01:11.950Z,80.69
2019-05-22T00:02:11.940Z,80.08
2019-05-22T00:03:11.945Z,80.29
2019-05-22T00:04:11.923Z,79.88
2019-05-22T00:05:11.944Z,79.99
2019-05-22T00:06:11.919Z,79.88
2019-05-22T00:07:11.884Z,79.99
2019-05-22T00:08:11.886Z,80.19
2019-05-22T00:09:11.873Z,81.23
2019-05-22T00:10:11.853Z,81.33
2019-05-22T00:11:11.857Z,81.39
2019-05-22T00:12:11.834Z,80.79
2019-05-22T00:13:11.828Z,80.39
2019-05-22T00:14:11.816Z,79.82
2019-05-22T00:15:11.809Z,80.29
2019-05-22T00:16:11.798Z,80.22
2019-05-22T00:17:11.779Z,80.52
2019-05-22T00:18:11.770Z,80.93
2019-05-22T00:19:11.758Z,80.12
2019-05-22T00:20:11.747Z,80.93
2019-05-22T00:21:11.754Z,80.93
2019-05-22T00:22:11.722Z,80.52
2019-05-22T00:23:11.759Z,81.03
2019-05-22T00:24:11.702Z,80.02
2019-05-22T00:25:11.693Z,80.32
2019-05-22T00:26:11.692Z,79.72
2019-05-22T00:27:11.670Z,80.22
2019-05-22T00:28:11.660Z,80.02
2019-05-22T00:29:11.649Z,79.52
2019-05-22T00:30:11.647Z,79.82
2019-05-22T00:31:11.641Z,79.72
2019-05-22T00:32:11.617Z,79.82
2019-05-22T00:33:11.605Z,80.02
2019-05-22T00:34:11.598Z,78.91
2019-05-22T00:35:11.584Z,79.22
2019-05-22T00:36:11.593Z,79.32
2019-05-22T00:37:11.575Z,79.42
2019-05-22T00:38:11.569Z,79.52
2019-05-22T00:39:11.547Z,79.72
2019-05-22T00:40:11.894Z,80.32
2019-05-22T00:41:11.567Z,79.86
2019-05-22T00:42:11.515Z,80.02
2019-05-22T00:43:14.193Z,79.62
2019-05-22T00:44:11.517Z,79.25
2019-05-22T00:45:11.477Z,78.85
2019-05-22T00:46:11.476Z,79.25
2019-05-22T00:47:11.455Z,78.45
2019-05-22T00:48:11.460Z,78.55
2019-05-22T00:49:11.445Z,79.25
2019-05-22T00:50:11.423Z,79.66
2019-05-22T00:51:11.526Z,79.16
2019-05-22T00:52:11.400Z,78.75
2019-05-22T00:53:11.389Z,78.96
2019-05-22T00:54:11.386Z,78.65
2019-05-22T00:55:11.370Z,79.05
2019-05-22T00:56:11.395Z,79.36
2019-05-22T00:57:11.346Z,79.56
2019-05-22T00:58:11.336Z,79.05
2019-05-22T00:59:11.327Z,79.09
2019-05-22T01:00:11.321Z,79.49
2019-05-22T01:01:11.306Z,79.80
2019-05-22T01:02:11.307Z,79.19
2019-05-22T01:03:11.288Z,79.19
2019-05-22T01:04:11.275Z,79.29
2019-05-22T01:05:11.262Z,79.69
2019-05-22T01:06:11.250Z,79.69
2019-05-22T01:07:11.258Z,78.89
2019-05-22T01:08:11.228Z,79.69
2019-05-22T01:09:11.217Z,79.09
2019-05-22T01:10:11.580Z,78.89
2019-05-22T01:11:11.195Z,79.80
2019-05-22T01:12:11.329Z,79.19
2019-05-22T01:13:11.219Z,79.29
2019-05-22T01:14:11.163Z,80.00
2019-05-22T01:15:11.235Z,79.19
2019-05-22T01:16:11.145Z,78.39
2019-05-22T01:17:11.156Z,78.69
2019-05-22T01:18:11.277Z,78.49
2019-05-22T01:19:11.156Z,78.02
2019-05-22T01:20:11.203Z,78.59
2019-05-22T01:21:11.092Z,78.69
2019-05-22T01:22:11.089Z,78.28
2019-05-22T01:23:11.067Z,79.33
2019-05-22T01:24:11.060Z,79.43
2019-05-22T01:25:11.049Z,79.33
2019-05-22T01:26:11.035Z,79.33
2019-05-22T01:27:11.034Z,79.33
2019-05-22T01:28:11.017Z,79.63
2019-05-22T01:29:11.005Z,79.53
2019-05-22T01:30:10.992Z,79.03
2019-05-22T01:31:10.994Z,79.43
2019-05-22T01:32:10.991Z,79.33
2019-05-22T01:33:10.959Z,79.83
2019-05-22T01:34:10.948Z,79.73
2019-05-22T01:35:10.939Z,80.13
2019-05-22T01:36:10.929Z,79.97
2019-05-22T01:37:10.926Z,79.73
2019-05-22T01:38:10.919Z,79.97
2019-05-22T01:39:10.894Z,79.73
2019-05-22T01:40:10.889Z,79.97
2019-05-22T01:41:10.875Z,80.04
2019-05-22T01:42:10.869Z,79.93
2019-05-22T01:43:10.871Z,80.07
2019-05-22T01:44:10.844Z,80.27
2019-05-22T01:45:10.828Z,79.93
2019-05-22T01:46:10.820Z,79.53
2019-05-22T01:47:10.808Z,79.83
2019-05-22T01:48:10.810Z,80.04
2019-05-22T01:49:10.786Z,80.13
2019-05-22T01:50:10.774Z,80.04
2019-05-22T01:51:10.784Z,79.33
2019-05-22T01:52:10.756Z,79.63
2019-05-22T01:53:10.766Z,79.63
2019-05-22T01:54:10.733Z,79.13
2019-05-22T01:55:10.728Z,79.23
2019-05-22T01:56:10.731Z,79.73
2019-05-22T01:57:10.699Z,79.43
2019-05-22T01:58:10.697Z,78.92
2019-05-22T01:59:10.690Z,78.83
2019-05-22T02:00:10.669Z,78.72
2019-05-22T02:01:10.655Z,78.46
2019-05-22T02:02:10.651Z,78.66
2019-05-22T02:03:10.645Z,79.06
2019-05-22T02:04:10.624Z,78.86
2019-05-22T02:05:10.614Z,78.56
2019-05-22T02:06:10.601Z,78.66
2019-05-22T02:07:10.591Z,78.56
2019-05-22T02:08:10.606Z,79.27
2019-05-22T02:09:10.574Z,79.16
2019-05-22T02:10:10.558Z,79.36
2019-05-22T02:11:10.553Z,79.77
2019-05-22T02:12:10.562Z,79.41
2019-05-22T02:13:10.530Z,79.57
2019-05-22T02:14:10.527Z,79.77
2019-05-22T02:15:10.507Z,80.27
2019-05-22T02:16:10.495Z,79.97
2019-05-22T02:17:10.486Z,79.91
2019-05-22T02:18:10.481Z,79.61
2019-05-22T02:19:10.471Z,80.21
2019-05-22T02:20:10.451Z,79.41
2019-05-22T02:21:10.440Z,79.81
2019-05-22T02:22:10.440Z,79.30
2019-05-22T02:23:10.422Z,79.30
2019-05-22T02:24:10.439Z,79.00
2019-05-22T02:25:10.398Z,79.41
2019-05-22T02:26:10.386Z,79.10
2019-05-22T02:27:10.378Z,79.00
2019-05-22T02:28:10.367Z,79.61
2019-05-22T02:29:10.374Z,78.59
2019-05-22T02:30:10.354Z,78.80
2019-05-22T02:31:10.337Z,79.00
2019-05-22T02:32:10.321Z,79.91
2019-05-22T02:33:10.326Z,79.64
2019-05-22T02:34:10.310Z,79.81
2019-05-22T02:35:10.302Z,79.71
2019-05-22T02:36:10.281Z,79.81
2019-05-22T02:37:10.275Z,80.11
2019-05-22T02:38:10.267Z,80.05
2019-05-22T02:39:10.261Z,79.91
2019-05-22T02:40:10.239Z,79.24
2019-05-22T02:41:14.135Z,79.41
2019-05-22T02:42:10.217Z,78.59
2019-05-22T02:43:10.204Z,78.94
2019-05-22T02:44:10.216Z,79.85
2019-05-22T02:45:10.183Z,80.05
2019-05-22T02:46:10.180Z,80.15
2019-05-22T02:47:19.183Z,80.15
2019-05-22T02:48:11.161Z,79.85
2019-05-22T02:49:10.150Z,79.85
2019-05-22T02:50:10.130Z,79.94
2019-05-22T02:51:10.164Z,79.74
2019-05-22T02:52:10.106Z,79.04
2019-05-22T02:53:10.096Z,79.34
2019-05-22T02:54:10.087Z,78.53
2019-05-22T02:55:10.098Z,79.04
2019-05-22T02:56:10.069Z,78.63
2019-05-22T02:57:10.054Z,79.34
2019-05-22T02:58:10.043Z,79.64
2019-05-22T02:59:10.047Z,79.64
2019-05-22T03:00:10.032Z,79.74
2019-05-22T03:01:10.009Z,80.25
2019-05-22T03:02:09.998Z,80.15
2019-05-22T03:03:09.989Z,80.15
2019-05-22T03:04:09.980Z,79.74
2019-05-22T03:05:09.979Z,79.94
2019-05-22T03:06:09.960Z,80.08
2019-05-22T03:07:09.946Z,80.08
2019-05-22T03:08:09.934Z,79.48
2019-05-22T03:09:09.932Z,80.05
2019-05-22T03:10:09.927Z,80.19
2019-05-22T03:11:09.904Z,80.39
2019-05-22T03:12:09.892Z,80.19
2019-05-22T03:13:09.881Z,80.90
2019-05-22T03:14:09.870Z,80.05
2019-05-22T03:15:09.868Z,79.85
2019-05-22T03:16:09.847Z,80.45
2019-05-22T03:17:09.861Z,80.08
2019-05-22T03:18:09.828Z,80.08
2019-05-22T03:19:09.820Z,80.39
2019-05-22T03:20:09.823Z,80.59
2019-05-22T03:21:09.796Z,80.59
2019-05-22T03:22:09.784Z,80.69
2019-05-22T03:23:09.822Z,80.49
2019-05-22T03:24:09.761Z,80.39
2019-05-22T03:25:09.765Z,80.39
2019-05-22T03:26:09.772Z,80.49
2019-05-22T03:27:09.730Z,80.29
2019-05-22T03:28:09.745Z,79.88
2019-05-22T03:29:09.712Z,80.59
2019-05-22T03:30:09.731Z,80.29
2019-05-22T03:31:09.686Z,80.49
2019-05-22T03:32:09.696Z,80.08
2019-05-22T03:33:09.674Z,80.49
2019-05-22T03:34:09.663Z,80.39
2019-05-22T03:35:09.646Z,80.22
2019-05-22T03:36:09.654Z,79.99
2019-05-22T03:37:09.621Z,81.50
2019-05-22T03:38:09.612Z,81.20
2019-05-22T03:39:09.618Z,81.50
2019-05-22T03:40:09.594Z,80.19
2019-05-22T03:41:09.590Z,80.79
2019-05-22T03:42:09.569Z,80.29
2019-05-22T03:43:09.567Z,80.59
2019-05-22T03:44:09.554Z,80.19
2019-05-22T03:45:09.543Z,80.49
2019-05-22T03:46:09.535Z,80.99
2019-05-22T03:47:09.514Z,80.99
2019-05-22T03:48:09.504Z,81.20
2019-05-22T03:49:26.165Z,80.83
2019-05-22T03:50:10.491Z,80.29
2019-05-22T03:51:09.509Z,80.39
2019-05-22T03:52:09.460Z,80.59
2019-05-22T03:53:09.449Z,80.39
2019-05-22T03:54:09.448Z,80.19
2019-05-22T03:55:09.426Z,80.83
2019-05-22T03:56:09.420Z,80.53
2019-05-22T03:57:09.425Z,80.63
2019-05-22T03:58:09.397Z,80.43
2019-05-22T03:59:09.384Z,80.53
2019-05-22T04:00:09.371Z,80.63
2019-05-22T04:01:09.365Z,80.43
2019-05-22T04:02:09.364Z,81.13
2019-05-22T04:03:09.343Z,80.53
2019-05-22T04:04:09.330Z,80.63
2019-05-22T04:05:09.321Z,80.32
2019-05-22T04:06:09.317Z,81.23
2019-05-22T04:07:09.307Z,81.54
2019-05-22T04:08:09.286Z,81.64
2019-05-22T04:09:09.276Z,81.54
2019-05-22T04:10:09.271Z,81.57
2019-05-22T04:11:09.255Z,81.54
2019-05-22T04:12:09.256Z,81.57
2019-05-22T04:13:09.248Z,81.54
2019-05-22T04:14:09.223Z,82.08
2019-05-22T04:15:09.214Z,82.65
2019-05-22T04:16:09.198Z,81.27
2019-05-22T04:17:09.223Z,81.84
2019-05-22T04:18:09.184Z,81.17
2019-05-22T04:19:09.172Z,81.37
2019-05-22T04:20:09.165Z,81.64
2019-05-22T04:21:09.155Z,81.68
2019-05-22T04:22:09.159Z,81.13
2019-05-22T04:23:09.133Z,81.23
2019-05-22T04:24:09.123Z,81.68
2019-05-22T04:25:09.103Z,81.57
2019-05-22T04:26:09.093Z,81.68
2019-05-22T04:27:09.092Z,80.66
2019-05-22T04:28:09.072Z,80.46
2019-05-22T04:29:09.071Z,80.36
2019-05-22T04:30:09.064Z,80.26
2019-05-22T04:31:09.044Z,80.16
2019-05-22T04:32:09.038Z,80.66
2019-05-22T04:33:09.026Z,80.16
2019-05-22T04:34:09.008Z,79.96
2019-05-22T04:35:08.996Z,79.35
2019-05-22T04:36:10.337Z,79.55
2019-05-22T04:37:08.991Z,79.15
2019-05-22T04:38:08.966Z,79.55
2019-05-22T04:39:08.956Z,79.86
2019-05-22T04:40:08.945Z,79.86
2019-05-22T04:41:08.929Z,79.59
2019-05-22T04:42:08.945Z,80.71
2019-05-22T04:43:08.909Z,80.60
2019-05-22T04:44:08.898Z,80.50
2019-05-22T04:45:08.887Z,80.10
2019-05-22T04:46:08.885Z,80.40
2019-05-22T04:47:08.867Z,80.50
2019-05-22T04:48:08.884Z,80.40
2019-05-22T04:49:08.845Z,80.40
2019-05-22T04:50:08.871Z,80.50
2019-05-22T04:51:08.821Z,80.60
2019-05-22T04:52:08.816Z,80.50
2019-05-22T04:53:08.815Z,79.69
2019-05-22T04:54:08.792Z,80.20
2019-05-22T04:55:08.782Z,80.20
2019-05-22T04:56:08.771Z,80.30
2019-05-22T04:57:08.760Z,80.20
2019-05-22T04:58:08.759Z,80.30
2019-05-22T04:59:08.736Z,80.30
2019-05-22T05:00:08.733Z,80.80
2019-05-22T05:01:08.719Z,80.60
2019-05-22T05:02:08.723Z,80.60
2019-05-22T05:03:08.708Z,80.60
2019-05-22T05:04:08.703Z,80.40
2019-05-22T05:05:08.672Z,80.40
2019-05-22T05:06:08.660Z,80.00
2019-05-22T05:07:08.650Z,80.44
2019-05-22T05:08:08.647Z,80.44
2019-05-22T05:09:08.627Z,80.40
2019-05-22T05:10:08.618Z,80.20
2019-05-22T05:11:08.610Z,80.94
2019-05-22T05:12:08.622Z,80.84
2019-05-22T05:13:08.596Z,80.54
2019-05-22T05:14:08.576Z,80.34
2019-05-22T05:15:08.563Z,80.64
2019-05-22T05:16:08.553Z,80.64
2019-05-22T05:17:08.542Z,80.74
2019-05-22T05:18:08.539Z,80.84
2019-05-22T05:19:08.519Z,80.34
2019-05-22T05:20:21.549Z,80.94
2019-05-22T05:21:09.495Z,81.09
2019-05-22T05:22:08.485Z,80.54
2019-05-22T05:23:08.487Z,80.64
2019-05-22T05:24:08.465Z,80.13
2019-05-22T05:25:08.454Z,80.44
2019-05-22T05:26:08.442Z,80.34
2019-05-22T05:27:08.432Z,80.54
2019-05-22T05:28:08.445Z,80.34
2019-05-22T05:29:08.411Z,80.24
2019-05-22T05:30:08.399Z,80.07
2019-05-22T05:31:08.391Z,80.38
2019-05-22T05:32:08.378Z,80.47
2019-05-22T05:33:08.379Z,80.78
2019-05-22T05:34:08.356Z,80.58
2019-05-22T05:35:08.365Z,80.18
2019-05-22T05:36:08.334Z,80.47
2019-05-22T05:37:08.328Z,80.78
2019-05-22T05:38:08.324Z,80.58
2019-05-22T05:39:08.302Z,80.78
2019-05-22T05:40:08.297Z,80.68
2019-05-22T05:41:08.292Z,80.78
2019-05-22T05:42:08.269Z,80.68
2019-05-22T05:43:08.269Z,80.38
2019-05-22T05:44:08.248Z,80.27
2019-05-22T05:45:08.241Z,80.18
2019-05-22T05:46:08.234Z,80.18
2019-05-22T05:47:08.218Z,80.38
2019-05-22T05:48:08.251Z,80.07
2019-05-22T05:49:08.197Z,80.27
2019-05-22T05:50:08.193Z,80.47
2019-05-22T05:51:08.183Z,80.68
2019-05-22T05:52:08.164Z,80.41
2019-05-22T05:53:08.152Z,80.38
2019-05-22T05:54:08.159Z,80.47
2019-05-22T05:55:08.180Z,80.58
2019-05-22T05:56:08.127Z,80.82
2019-05-22T05:57:08.115Z,80.18
2019-05-22T05:58:08.126Z,80.68
2019-05-22T05:59:08.100Z,80.38
2019-05-22T06:00:08.079Z,80.38
2019-05-22T06:01:08.069Z,79.97
2019-05-22T06:02:08.102Z,79.97
2019-05-22T06:03:08.053Z,79.67
2019-05-22T06:04:08.054Z,80.01
2019-05-22T06:05:08.027Z,79.87
2019-05-22T06:06:08.016Z,80.11
2019-05-22T06:07:08.012Z,80.41
2019-05-22T06:08:07.991Z,80.41
2019-05-22T06:09:07.998Z,80.21
2019-05-22T06:10:07.969Z,79.91
2019-05-22T06:11:07.965Z,80.31
2019-05-22T06:12:07.950Z,80.11
2019-05-22T06:13:07.941Z,80.41
2019-05-22T06:14:07.954Z,80.41
2019-05-22T06:15:07.937Z,80.62
2019-05-22T06:16:07.909Z,80.72
2019-05-22T06:17:07.902Z,81.12
2019-05-22T06:18:07.925Z,80.52
2019-05-22T06:19:07.891Z,80.82
2019-05-22T06:20:07.867Z,80.31
2019-05-22T06:21:07.865Z,80.72
2019-05-22T06:22:07.845Z,80.11
2019-05-22T06:23:07.835Z,80.58
2019-05-22T06:24:07.847Z,80.38
2019-05-22T06:25:07.899Z,80.47
2019-05-22T06:26:07.797Z,80.62
2019-05-22T06:27:07.783Z,80.31
2019-05-22T06:28:07.776Z,80.27
2019-05-22T06:29:07.763Z,80.41
2019-05-22T06:30:07.760Z,80.27
2019-05-22T06:31:07.742Z,79.80
2019-05-22T06:32:07.769Z,80.21
2019-05-22T06:33:07.724Z,80.31
2019-05-22T06:34:07.715Z,80.41
2019-05-22T06:35:07.710Z,80.01
2019-05-22T06:36:07.689Z,80.62
2019-05-22T06:37:07.678Z,80.92
2019-05-22T06:38:07.706Z,80.82
2019-05-22T06:39:07.663Z,81.32
2019-05-22T06:40:07.655Z,81.12
2019-05-22T06:41:07.636Z,80.92
2019-05-22T06:42:07.624Z,80.52
2019-05-22T06:43:07.614Z,80.62
2019-05-22T06:44:07.607Z,80.31
2019-05-22T06:45:07.713Z,80.41
2019-05-22T06:46:07.584Z,80.62
2019-05-22T06:47:07.599Z,80.31
2019-05-22T06:48:07.563Z,79.60
2019-05-22T06:49:07.583Z,79.71
2019-05-22T06:50:07.568Z,80.11
2019-05-22T06:51:19.025Z,80.31
2019-05-22T06:52:08.568Z,79.30
2019-05-22T06:53:10.142Z,79.91
2019-05-22T06:54:07.504Z,79.80
2019-05-22T06:55:07.503Z,79.80
2019-05-22T06:56:07.478Z,80.41
2019-05-22T06:57:07.466Z,80.55
2019-05-22T06:58:07.454Z,79.60
2019-05-22T06:59:07.446Z,79.40
2019-05-22T07:00:14.086Z,78.89
2019-05-22T07:01:08.424Z,79.54
2019-05-22T07:02:07.417Z,80.35
2019-05-22T07:03:07.398Z,79.80
2019-05-22T07:04:07.390Z,79.40
2019-05-22T07:05:07.388Z,78.89
2019-05-22T07:06:07.367Z,79.64
2019-05-22T07:07:11.553Z,80.05
2019-05-22T07:08:07.348Z,80.35
2019-05-22T07:09:07.332Z,79.85
2019-05-22T07:10:07.361Z,80.01
2019-05-22T07:11:07.325Z,79.91
2019-05-22T07:12:07.300Z,79.74
2019-05-22T07:13:07.289Z,79.80
2019-05-22T07:14:07.280Z,80.25
2019-05-22T07:15:07.274Z,79.74
2019-05-22T07:16:07.272Z,79.44
2019-05-22T07:17:07.248Z,80.15
2019-05-22T07:18:07.250Z,80.55
2019-05-22T07:19:07.227Z,80.76
2019-05-22T07:20:07.222Z,80.15
2019-05-22T07:21:07.219Z,79.64
2019-05-22T07:22:07.207Z,79.54
2019-05-22T07:23:07.184Z,80.05
2019-05-22T07:24:07.176Z,80.15
2019-05-22T07:25:07.162Z,80.35
2019-05-22T07:26:07.169Z,80.25
2019-05-22T07:27:07.145Z,79.54
2019-05-22T07:28:07.151Z,79.74
2019-05-22T07:29:07.125Z,79.44
2019-05-22T07:30:07.220Z,79.94
2019-05-22T07:31:07.110Z,79.71
2019-05-22T07:32:07.101Z,79.94
2019-05-22T07:33:07.079Z,79.54
2019-05-22T07:34:07.067Z,79.03
2019-05-22T07:35:07.054Z,79.34
2019-05-22T07:36:10.935Z,79.85
2019-05-22T07:37:08.031Z,79.85
2019-05-22T07:38:07.028Z,79.64
2019-05-22T07:39:07.023Z,79.64
2019-05-22T07:40:07.007Z,79.34
2019-05-22T07:41:07.010Z,79.74
2019-05-22T07:42:06.984Z,79.54
2019-05-22T07:43:06.981Z,79.74
2019-05-22T07:44:06.978Z,79.03
2019-05-22T07:45:06.946Z,79.34
2019-05-22T07:46:06.953Z,78.63
2019-05-22T07:47:06.926Z,79.24
2019-05-22T07:48:07.320Z,79.03
2019-05-22T07:49:06.905Z,79.13
2019-05-22T07:50:06.981Z,79.13
2019-05-22T07:51:06.894Z,79.34
2019-05-22T07:52:06.872Z,79.74
2019-05-22T07:53:06.861Z,80.35
2019-05-22T07:54:06.854Z,79.85
2019-05-22T07:55:06.846Z,79.34
2019-05-22T07:56:06.846Z,78.83
2019-05-22T07:57:06.818Z,78.42
2019-05-22T07:58:06.808Z,79.44
2019-05-22T07:59:06.796Z,79.54
2019-05-22T08:00:06.785Z,80.35
2019-05-22T08:01:06.819Z,79.85
2019-05-22T08:02:06.764Z,79.34
2019-05-22T08:03:06.755Z,79.74
2019-05-22T08:04:06.743Z,79.10
2019-05-22T08:05:06.742Z,79.00
2019-05-22T08:06:06.737Z,79.10
2019-05-22T08:07:06.735Z,79.34
2019-05-22T08:08:06.703Z,79.00
2019-05-22T08:09:06.724Z,79.30
2019-05-22T08:10:06.680Z,79.20
2019-05-22T08:11:06.682Z,78.69
2019-05-22T08:12:06.657Z,78.79
2019-05-22T08:13:06.658Z,78.79
2019-05-22T08:14:06.634Z,78.08
2019-05-22T08:15:06.628Z,78.02
2019-05-22T08:16:06.624Z,77.82
2019-05-22T08:17:06.609Z,78.12
2019-05-22T08:18:06.595Z,78.59
2019-05-22T08:19:06.585Z,77.58
2019-05-22T08:20:06.574Z,77.61
2019-05-22T08:21:06.816Z,78.79
2019-05-22T08:22:07.793Z,78.42
2019-05-22T08:23:06.541Z,78.28
2019-05-22T08:24:06.538Z,78.83
2019-05-22T08:25:06.515Z,78.59
2019-05-22T08:26:06.509Z,78.49
2019-05-22T08:27:06.563Z,77.78
2019-05-22T08:28:06.490Z,78.49
2019-05-22T08:29:06.485Z,78.42
2019-05-22T08:30:06.462Z,78.08
2019-05-22T08:31:06.456Z,78.49
2019-05-22T08:32:06.451Z,78.89
2019-05-22T08:33:06.434Z,78.33
2019-05-22T08:34:06.420Z,78.42
2019-05-22T08:35:06.408Z,78.73
2019-05-22T08:36:06.397Z,79.13
2019-05-22T08:37:06.397Z,78.73
2019-05-22T08:38:06.383Z,78.73
2019-05-22T08:39:06.364Z,78.83
2019-05-22T08:40:06.357Z,78.93
2019-05-22T08:41:06.346Z,78.83
2019-05-22T08:42:06.345Z,78.73
2019-05-22T08:43:06.323Z,78.53
2019-05-22T08:44:16.151Z,78.42
2019-05-22T08:45:07.299Z,79.03
2019-05-22T08:46:06.293Z,79.74
2019-05-22T08:47:06.289Z,79.64
2019-05-22T08:48:06.290Z,78.73
2019-05-22T08:49:06.258Z,78.53
2019-05-22T08:50:06.249Z,78.73
2019-05-22T08:51:06.236Z,78.12
2019-05-22T08:52:06.241Z,79.24
2019-05-22T08:53:06.214Z,78.33
2019-05-22T08:54:06.307Z,78.73
2019-05-22T08:55:06.192Z,78.73
2019-05-22T08:56:06.186Z,78.73
2019-05-22T08:57:06.181Z,78.93
2019-05-22T08:58:06.188Z,79.03
2019-05-22T08:59:18.775Z,79.24
2019-05-22T09:00:07.144Z,78.83
2019-05-22T09:01:06.129Z,78.93
2019-05-22T09:02:06.129Z,79.24
2019-05-22T09:03:06.106Z,78.83
2019-05-22T09:04:06.109Z,79.13
2019-05-22T09:05:06.088Z,78.83
2019-05-22T09:06:06.088Z,78.73
2019-05-22T09:07:06.116Z,78.63
2019-05-22T09:08:06.053Z,78.22
2019-05-22T09:09:06.043Z,78.83
2019-05-22T09:10:06.034Z,78.42
2019-05-22T09:11:06.023Z,78.42
2019-05-22T09:12:06.019Z,78.63
2019-05-22T09:13:06.010Z,79.34
2019-05-22T09:14:05.997Z,79.24
2019-05-22T09:15:05.977Z,79.54
2019-05-22T09:16:05.970Z,79.34
2019-05-22T09:17:05.957Z,78.22
2019-05-22T09:18:05.974Z,78.22
2019-05-22T09:19:05.940Z,78.73
2019-05-22T09:20:05.946Z,79.54
2019-05-22T09:21:05.944Z,79.24
2019-05-22T09:22:05.912Z,78.63
2019-05-22T09:23:05.902Z,78.93
2019-05-22T09:24:05.883Z,78.28
2019-05-22T09:25:06.043Z,78.73
2019-05-22T09:26:05.863Z,78.79
2019-05-22T09:27:05.854Z,78.83
2019-05-22T09:28:05.848Z,78.83
2019-05-22T09:29:05.828Z,78.73
2019-05-22T09:30:05.818Z,79.03
2019-05-22T09:31:05.842Z,78.33
2019-05-22T09:32:06.033Z,78.53
2019-05-22T09:33:05.793Z,78.89
2019-05-22T09:34:05.774Z,79.00
2019-05-22T09:35:05.767Z,78.89
2019-05-22T09:36:06.115Z,78.53
2019-05-22T09:37:05.741Z,79.00
2019-05-22T09:38:05.739Z,78.49
2019-05-22T09:39:05.720Z,78.49
2019-05-22T09:40:05.710Z,78.69
2019-05-22T09:41:05.700Z,78.69
2019-05-22T09:42:05.696Z,77.88
2019-05-22T09:43:05.728Z,78.28
2019-05-22T09:44:05.667Z,78.28
2019-05-22T09:45:05.657Z,77.98
2019-05-22T09:46:05.645Z,78.79
2019-05-22T09:47:05.631Z,78.89
2019-05-22T09:48:05.636Z,78.39
2019-05-22T09:49:05.615Z,78.59
2019-05-22T09:50:05.603Z,78.79
2019-05-22T09:51:05.590Z,78.49
2019-05-22T09:52:05.591Z,78.59
2019-05-22T09:53:05.602Z,77.88
2019-05-22T09:54:05.562Z,78.39
2019-05-22T09:55:05.549Z,78.19
2019-05-22T09:56:05.541Z,79.20
2019-05-22T09:57:05.529Z,79.20
2019-05-22T09:58:05.520Z,79.30
2019-05-22T09:59:05.519Z,78.19
2019-05-22T10:00:05.498Z,78.08
2019-05-22T10:01:05.484Z,78.59
2019-05-22T10:02:05.484Z,78.89
2019-05-22T10:03:05.473Z,78.69
2019-05-22T10:04:05.465Z,78.79
2019-05-22T10:05:05.442Z,78.49
2019-05-22T10:06:05.554Z,78.45
2019-05-22T10:07:05.419Z,78.79
2019-05-22T10:08:05.420Z,78.28
2019-05-22T10:09:05.405Z,78.39
2019-05-22T10:10:05.388Z,77.98
2019-05-22T10:11:05.372Z,77.98
2019-05-22T10:12:05.361Z,77.98
2019-05-22T10:13:05.363Z,77.98
2019-05-22T10:14:05.358Z,78.69
2019-05-22T10:15:05.333Z,78.49
2019-05-22T10:16:05.318Z,78.59
2019-05-22T10:17:05.309Z,78.79
2019-05-22T10:18:05.303Z,79.10
2019-05-22T10:19:05.312Z,78.89
2019-05-22T10:20:05.277Z,78.79
2019-05-22T10:21:05.410Z,78.89
2019-05-22T10:22:05.255Z,78.89
2019-05-22T10:23:15.070Z,78.49
2019-05-22T10:24:06.241Z,77.98
2019-05-22T10:25:15.879Z,77.68
2019-05-22T10:26:06.213Z,78.19
2019-05-22T10:27:05.199Z,78.19
2019-05-22T10:28:05.194Z,77.28
2019-05-22T10:29:05.187Z,76.67
2019-05-22T10:30:05.183Z,76.73
2019-05-22T10:31:05.161Z,76.46
2019-05-22T10:32:05.146Z,76.77
2019-05-22T10:33:05.142Z,76.77
2019-05-22T10:34:05.139Z,77.28
2019-05-22T10:35:05.118Z,77.48
2019-05-22T10:36:05.104Z,77.37
2019-05-22T10:37:05.094Z,76.83
2019-05-22T10:38:05.081Z,77.17
2019-05-22T10:39:05.115Z,77.68
2019-05-22T10:40:05.059Z,77.48
2019-05-22T10:41:05.050Z,77.48
2019-05-22T10:42:05.038Z,77.88
2019-05-22T10:43:05.207Z,77.48
2019-05-22T10:44:05.028Z,78.08
2019-05-22T10:45:05.008Z,78.08
2019-05-22T10:46:05.014Z,77.78
2019-05-22T10:47:04.985Z,77.88
2019-05-22T10:48:04.973Z,77.37
2019-05-22T10:49:04.976Z,78.19
2019-05-22T10:50:04.952Z,77.98
2019-05-22T10:51:04.958Z,78.08
2019-05-22T10:52:04.934Z,77.88
2019-05-22T10:53:04.921Z,77.88
2019-05-22T10:54:04.919Z,77.37
2019-05-22T10:55:04.900Z,77.88
2019-05-22T10:56:04.894Z,78.19
2019-05-22T10:57:04.880Z,77.98
2019-05-22T10:58:04.890Z,77.78
2019-05-22T10:59:04.866Z,78.39
2019-05-22T11:00:04.848Z,77.95
2019-05-22T11:01:04.838Z,77.88
2019-05-22T11:02:04.824Z,78.69
2019-05-22T11:03:04.853Z,78.59
2019-05-22T11:04:04.813Z,77.88
2019-05-22T11:05:04.798Z,77.88
2019-05-22T11:06:07.590Z,77.98
2019-05-22T11:07:04.777Z,78.79
2019-05-22T11:08:04.781Z,78.59
2019-05-22T11:09:04.761Z,77.58
2019-05-22T11:10:04.739Z,77.58
2019-05-22T11:11:04.743Z,77.28
2019-05-22T11:12:04.716Z,77.88
2019-05-22T11:13:04.712Z,77.98
2019-05-22T11:14:04.702Z,77.48
2019-05-22T11:15:04.684Z,77.58
2019-05-22T11:16:04.681Z,77.48
2019-05-22T11:17:04.668Z,76.67
2019-05-22T11:18:04.652Z,76.53
2019-05-22T11:19:04.667Z,76.63
2019-05-22T11:20:04.627Z,76.67
2019-05-22T11:21:04.620Z,76.63
2019-05-22T11:22:04.623Z,77.14
2019-05-22T11:23:05.038Z,77.24
2019-05-22T11:24:04.601Z,76.87
2019-05-22T11:25:04.576Z,76.43
2019-05-22T11:26:04.564Z,76.93
2019-05-22T11:27:04.554Z,76.87
2019-05-22T11:28:04.546Z,77.17
2019-05-22T11:29:04.571Z,77.48
2019-05-22T11:30:04.529Z,76.67
2019-05-22T11:31:04.549Z,76.46
2019-05-22T11:32:04.505Z,77.03
2019-05-22T11:33:04.496Z,76.87
2019-05-22T11:34:04.481Z,77.28
2019-05-22T11:35:04.481Z,77.58
2019-05-22T11:36:04.499Z,76.97
2019-05-22T11:37:04.447Z,77.28
2019-05-22T11:38:04.434Z,78.19
2019-05-22T11:39:04.427Z,77.88
2019-05-22T11:40:04.429Z,78.19
2019-05-22T11:41:04.402Z,78.05
2019-05-22T11:42:04.409Z,77.98
2019-05-22T11:43:04.383Z,78.59
2019-05-22T11:44:04.370Z,77.64
2019-05-22T11:45:04.373Z,77.84
2019-05-22T11:46:04.551Z,78.05
2019-05-22T11:47:04.411Z,77.44
2019-05-22T11:48:04.348Z,76.97
2019-05-22T11:49:04.316Z,76.77
2019-05-22T11:50:04.325Z,77.24
2019-05-22T11:51:04.298Z,78.05
2019-05-22T11:52:04.287Z,77.84
2019-05-22T11:53:04.276Z,77.95
2019-05-22T11:54:09.111Z,77.78
2019-05-22T11:55:05.273Z,77.48
2019-05-22T11:56:04.242Z,77.98
2019-05-22T11:57:04.239Z,78.35
2019-05-22T11:58:04.224Z,78.25
2019-05-22T11:59:04.211Z,78.45
2019-05-22T12:00:04.210Z,77.54
2019-05-22T12:01:04.190Z,78.49
2019-05-22T12:02:04.178Z,77.95
2019-05-22T12:03:04.169Z,77.64
2019-05-22T12:04:04.189Z,77.84
2019-05-22T12:05:04.187Z,77.34
2019-05-22T12:06:04.137Z,77.95
2019-05-22T12:07:05.971Z,77.98
2019-05-22T12:08:04.124Z,77.48
2019-05-22T12:09:04.941Z,77.88
2019-05-22T12:10:04.884Z,77.98
2019-05-22T12:11:04.095Z,77.78
2019-05-22T12:12:04.075Z,78.28
2019-05-22T12:13:04.063Z,78.49
2019-05-22T12:14:04.059Z,77.48
2019-05-22T12:15:04.050Z,77.28
2019-05-22T12:16:04.037Z,77.58
2019-05-22T12:17:04.037Z,77.58
2019-05-22T12:18:04.004Z,77.28
2019-05-22T12:19:03.995Z,77.58
2019-05-22T12:20:03.999Z,77.37
2019-05-22T12:21:04.008Z,77.28
2019-05-22T12:22:03.964Z,77.58
2019-05-22T12:23:03.952Z,76.97
2019-05-22T12:24:03.943Z,77.88
2019-05-22T12:25:03.942Z,77.88
2019-05-22T12:26:03.928Z,77.01
2019-05-22T12:27:03.921Z,77.72
2019-05-22T12:28:03.907Z,77.21
2019-05-22T12:29:03.887Z,77.92
2019-05-22T12:30:03.886Z,78.02
2019-05-22T12:31:03.867Z,77.51
2019-05-22T12:32:03.855Z,77.41
2019-05-22T12:33:11.932Z,78.02
2019-05-22T12:34:04.833Z,78.02
2019-05-22T12:35:03.845Z,77.41
2019-05-22T12:36:03.810Z,77.51
2019-05-22T12:37:03.804Z,77.41
2019-05-22T12:38:03.800Z,78.02
2019-05-22T12:39:03.789Z,78.02
2019-05-22T12:40:03.781Z,78.22
2019-05-22T12:41:03.759Z,78.22
2019-05-22T12:42:03.750Z,78.22
2019-05-22T12:43:03.740Z,77.61
2019-05-22T12:44:03.820Z,76.80
2019-05-22T12:45:03.913Z,76.90
2019-05-22T12:46:03.713Z,76.90
2019-05-22T12:47:03.694Z,77.92
2019-05-22T12:48:03.685Z,77.88
2019-05-22T12:49:03.672Z,78.12
2019-05-22T12:50:03.790Z,78.22
2019-05-22T12:51:03.664Z,77.41
2019-05-22T12:52:03.640Z,77.51